Time;durP1;ratioP1;P1;durP2;ratioP2;P2;SDS_P1;SDS_P2;PMS_P1;PMS_P2;Temp;Humidity;BMP_temperature;BMP_pressure;BME280_temperature;BME280_humidity;BME280_pressure;Samples;Min_cycle;Max_cycle;Signal;HPM_P1;HPM_P2
2021/08/11 00:02:12;;;;;;;;;;;;;;;-142.75;68.25;77097.88;5063960;28;19978;-78
2021/08/11 00:04:37;;;;;;;;;;;;;;;-142.75;68.12;77113.63;5064918;28;19916;-79
2021/08/11 00:07:02;;;;;;;;;;;;;;;-142.75;67.61;77064.41;5062711;28;20013;-79
2021/08/11 00:09:28;;;;;;;;;;;;;;;-142.75;67.75;77097.88;5064761;28;19916;-79
2021/08/11 00:11:53;;;;;;;;;;;;;;;-142.75;67.95;77101.81;5062090;28;20336;-78
2021/08/11 00:14:18;;;;;;;;;;;;;;;-142.75;67.96;77078.19;5063325;28;19980;-79
2021/08/11 00:16:43;;;;;;;;;;;;;;;-142.75;68.27;77080.16;5063328;28;19916;-79
2021/08/11 00:19:08;;;;;;;;;;;;;;;-142.75;68.92;77101.81;5063931;28;20007;-77
2021/08/11 00:21:34;;;;;;;;;;;;;;;-142.75;69.29;77095.91;5062744;28;19927;-78
2021/08/11 00:23:59;;;;;;;;;;;;;;;-142.75;69.35;77091.97;5059256;28;19988;-79
2021/08/11 00:26:24;;;;;;;;;;;;;;;-142.75;69.13;77097.88;5065248;28;19961;-78
2021/08/11 00:28:49;;;;;;;;;;;;;;;-142.75;69.11;77101.81;5059843;28;19924;-80
2021/08/11 00:31:14;;;;;;;;;;;;;;;-142.75;69.10;77107.72;5065105;28;19952;-78
2021/08/11 00:33:40;;;;;;;;;;;;;;;-142.75;69.38;77103.78;5060612;28;19940;-79
2021/08/11 00:36:05;;;;;;;;;;;;;;;-142.75;69.72;77095.91;5063682;28;19970;-78
2021/08/11 00:38:30;;;;;;;;;;;;;;;-142.75;69.81;77058.50;5060473;28;19916;-80
2021/08/11 00:40:55;;;;;;;;;;;;;;;-142.75;70.25;77091.97;5065776;28;20017;-79
2021/08/11 00:43:20;;;;;;;;;;;;;;;-142.75;70.48;77066.38;5063479;28;19943;-78
2021/08/11 00:45:46;;;;;;;;;;;;;;;-142.75;70.84;77113.63;5060706;28;19989;-81
2021/08/11 00:48:12;;;;;;;;;;;;;;;-142.75;70.21;77070.31;5066444;28;20016;-78
2021/08/11 00:50:37;;;;;;;;;;;;;;;-142.75;69.86;77121.50;5062309;28;19963;-78
2021/08/11 00:53:04;;;;;;;;;;;;;;;-142.75;70.58;77147.09;5066522;28;19951;-79
2021/08/11 00:55:32;;;;;;;;;;;;;;;-142.75;70.67;77156.94;5060543;28;19925;-78
2021/08/11 00:57:58;;;;;;;;;;;;;;;-142.75;70.55;77125.44;5063121;28;20007;-78
2021/08/11 01:00:24;;;;;;;;;;;;;;;-142.75;70.44;77143.16;5054051;28;20023;-79
2021/08/11 01:02:50;;;;;;;;;;;;;;;-142.75;70.74;77105.75;5054184;28;19917;-78
2021/08/11 01:05:17;;;;;;;;;;;;;;;-142.75;70.21;77105.75;5060277;28;19924;-80
2021/08/11 01:07:43;;;;;;;;;;;;;;;-142.75;70.41;77153.00;5064405;28;20346;-78
2021/08/11 01:10:08;;;;;;;;;;;;;;;-142.75;70.65;77117.56;5063099;28;20008;-78
2021/08/11 01:12:34;;;;;;;;;;;;;;;-142.75;70.47;77143.16;5061035;28;19916;-79
2021/08/11 01:15:01;;;;;;;;;;;;;;;-142.75;70.73;77164.81;5065107;28;19923;-78
2021/08/11 01:17:27;;;;;;;;;;;;;;;-142.75;70.52;77151.03;5059938;28;19932;-79
2021/08/11 01:19:52;;;;;;;;;;;;;;;-142.75;70.43;77119.53;5062439;28;19975;-80
2021/08/11 01:22:22;;;;;;;;;;;;;;;-142.75;71.07;77147.09;5061407;28;19956;-78
2021/08/11 01:24:51;;;;;;;;;;;;;;;-142.75;71.35;77143.16;5058750;28;19967;-78
2021/08/11 01:27:22;;;;;;;;;;;;;;;-142.75;71.09;77107.72;5062863;28;19969;-78
2021/08/11 01:29:57;;;;;;;;;;;;;;;-142.75;71.35;77113.63;5062121;28;19917;-78
2021/08/11 01:32:28;;;;;;;;;;;;;;;-142.75;71.33;77123.47;5060080;28;19921;-78
2021/08/11 01:34:54;;;;;;;;;;;;;;;-142.75;71.80;77117.56;5066212;28;19963;-78
2021/08/11 01:37:27;;;;;;;;;;;;;;;-142.75;71.99;77115.59;5062579;28;19964;-81
2021/08/11 01:39:55;;;;;;;;;;;;;;;-142.75;71.87;77070.31;5067157;28;19920;-78
2021/08/11 01:42:38;;;;;;;;;;;;;;;-142.75;72.39;77090.00;5065629;28;19925;-77
2021/08/11 01:45:09;;;;;;;;;;;;;;;-142.75;72.57;77080.16;5067826;28;19955;-78
2021/08/11 01:47:43;;;;;;;;;;;;;;;-142.75;72.74;77117.56;5061735;28;19917;-78
2021/08/11 01:50:11;;;;;;;;;;;;;;;-142.75;72.91;77101.81;5059178;28;20004;-78
2021/08/11 01:52:40;;;;;;;;;;;;;;;-142.75;73.11;77119.53;5061123;28;19924;-79
2021/08/11 01:55:07;;;;;;;;;;;;;;;-142.75;73.10;77123.47;5056377;28;20373;-78
2021/08/11 01:57:33;;;;;;;;;;;;;;;-142.75;73.00;77111.66;5063751;28;20006;-81
2021/08/11 02:00:02;;;;;;;;;;;;;;;-142.75;73.30;77097.88;5059658;28;19939;-77
2021/08/11 02:02:27;;;;;;;;;;;;;;;-142.75;73.14;77109.69;5063781;28;19920;-78
2021/08/11 02:04:52;;;;;;;;;;;;;;;-142.75;73.32;77109.69;5063567;28;19916;-78
2021/08/11 02:07:18;;;;;;;;;;;;;;;-142.75;73.38;77123.47;5060812;28;19956;-78
2021/08/11 02:09:43;;;;;;;;;;;;;;;-142.75;73.36;77129.38;5055141;28;19990;-78
2021/08/11 02:12:09;;;;;;;;;;;;;;;-142.75;73.40;77137.25;5065325;28;19916;-78
2021/08/11 02:14:34;;;;;;;;;;;;;;;-142.75;73.28;77125.44;5060376;28;19962;-78
2021/08/11 02:16:59;;;;;;;;;;;;;;;-142.75;73.04;77105.75;5063774;28;19917;-78
2021/08/11 02:19:25;;;;;;;;;;;;;;;-142.75;72.79;77103.78;5061007;28;19956;-78
2021/08/11 02:21:50;;;;;;;;;;;;;;;-142.75;72.62;77127.41;5061407;28;19921;-78
2021/08/11 02:24:15;;;;;;;;;;;;;;;-142.75;72.30;77125.44;5058555;28;19917;-77
2021/08/11 02:26:57;;;;;;;;;;;;;;;-142.75;72.26;77137.25;5059853;28;19917;-78
2021/08/11 02:29:22;;;;;;;;;;;;;;;-142.75;72.27;77115.59;5055613;28;19928;-78
2021/08/11 02:31:58;;;;;;;;;;;;;;;-142.75;72.67;77147.09;5063764;28;19917;-78
2021/08/11 02:34:42;;;;;;;;;;;;;;;-142.75;72.56;77141.19;5058196;28;19924;-78
2021/08/11 02:37:13;;;;;;;;;;;;;;;-142.75;72.81;77156.94;5065622;28;19920;-78
2021/08/11 02:39:43;;;;;;;;;;;;;;;-142.75;72.71;77153.00;5064096;28;20349;-77
2021/08/11 02:42:11;;;;;;;;;;;;;;;-142.75;72.74;77101.81;5062964;28;19920;-78
2021/08/11 02:44:38;;;;;;;;;;;;;;;-142.75;72.84;77121.50;5062184;28;20356;-78
2021/08/11 02:47:05;;;;;;;;;;;;;;;-142.75;73.09;77117.56;5054226;28;19920;-77
2021/08/11 02:49:32;;;;;;;;;;;;;;;-142.75;72.77;77105.75;5059660;28;20003;-78
2021/08/11 02:51:58;;;;;;;;;;;;;;;-142.75;73.12;77113.63;5062728;28;19917;-79
2021/08/11 02:54:24;;;;;;;;;;;;;;;-142.75;73.34;77149.06;5054371;28;19966;-78
2021/08/11 02:56:50;;;;;;;;;;;;;;;-142.75;73.62;77147.09;5062121;28;20422;-79
2021/08/11 02:59:15;;;;;;;;;;;;;;;-142.75;73.81;77156.94;5059152;28;19917;-80
2021/08/11 03:01:43;;;;;;;;;;;;;;;-142.75;73.93;77156.94;5056395;28;19921;-78
2021/08/11 03:04:08;;;;;;;;;;;;;;;-142.75;73.86;77125.44;5059700;28;19923;-78
2021/08/11 03:06:34;;;;;;;;;;;;;;;-142.75;74.29;77151.03;5061026;28;19916;-80
2021/08/11 03:09:00;;;;;;;;;;;;;;;-142.75;74.60;77133.31;5065031;28;20558;-78
2021/08/11 03:11:25;;;;;;;;;;;;;;;-142.75;74.71;77127.41;5061160;28;19924;-78
2021/08/11 03:13:51;;;;;;;;;;;;;;;-142.75;75.16;77127.41;5062183;28;19924;-78
2021/08/11 03:16:16;;;;;;;;;;;;;;;-142.75;75.54;77107.72;5058002;28;19999;-77
2021/08/11 03:18:41;;;;;;;;;;;;;;;-142.75;75.85;77111.66;5061067;28;19923;-78
2021/08/11 03:21:06;;;;;;;;;;;;;;;-142.75;76.03;77088.03;5063188;28;19924;-78
2021/08/11 03:23:32;;;;;;;;;;;;;;;-142.75;76.04;77105.75;5061133;28;20415;-78
2021/08/11 03:25:57;;;;;;;;;;;;;;;-142.75;75.96;77109.69;5066444;28;19917;-80
2021/08/11 03:28:22;;;;;;;;;;;;;;;-142.75;75.81;77105.75;5056120;28;19924;-79
2021/08/11 03:30:48;;;;;;;;;;;;;;;-142.75;75.67;77115.59;5059488;28;20335;-78
2021/08/11 03:33:13;;;;;;;;;;;;;;;-142.75;75.53;77113.63;5060900;28;19950;-79
2021/08/11 03:35:39;;;;;;;;;;;;;;;-142.75;75.56;77135.28;5058388;28;20322;-79
2021/08/11 03:38:04;;;;;;;;;;;;;;;-142.75;75.75;77133.31;5059272;28;20305;-79
2021/08/11 03:40:29;;;;;;;;;;;;;;;-142.75;75.70;77125.44;5054564;28;19925;-77
2021/08/11 03:42:55;;;;;;;;;;;;;;;-142.75;75.79;77125.44;5057270;28;19920;-78
2021/08/11 03:45:22;;;;;;;;;;;;;;;-142.75;75.77;77145.13;5059596;28;21474;-78
2021/08/11 03:47:47;;;;;;;;;;;;;;;-142.75;75.76;77149.06;5054071;28;19999;-78
2021/08/11 03:50:13;;;;;;;;;;;;;;;-142.75;75.78;77156.94;5054297;28;20004;-77
2021/08/11 03:52:38;;;;;;;;;;;;;;;-142.75;75.72;77168.75;5061734;28;19923;-78
2021/08/11 03:55:04;;;;;;;;;;;;;;;-142.75;75.67;77168.75;5058892;28;19916;-78
2021/08/11 03:57:29;;;;;;;;;;;;;;;-142.75;75.44;77156.94;5061810;28;20026;-78
2021/08/11 03:59:55;;;;;;;;;;;;;;;-142.75;75.17;77166.78;5058378;28;19923;-77
2021/08/11 04:02:20;;;;;;;;;;;;;;;-142.75;75.14;77164.81;5063078;28;19964;-79
2021/08/11 04:04:45;;;;;;;;;;;;;;;-142.75;74.99;77170.72;5054148;28;19917;-78
2021/08/11 04:07:10;;;;;;;;;;;;;;;-142.75;74.94;77176.63;5058760;28;20275;-79
2021/08/11 04:09:35;;;;;;;;;;;;;;;-142.75;74.90;77190.41;5053710;28;19938;-78
2021/08/11 04:12:00;;;;;;;;;;;;;;;-142.75;75.01;77162.84;5062122;28;20021;-78
2021/08/11 04:14:26;;;;;;;;;;;;;;;-142.75;75.06;77153.00;5062382;28;20415;-79
2021/08/11 04:16:51;;;;;;;;;;;;;;;-142.75;75.10;77164.81;5064218;28;19923;-78
2021/08/11 04:19:16;;;;;;;;;;;;;;;-142.75;75.40;77176.63;5065142;28;19917;-77
2021/08/11 04:21:41;;;;;;;;;;;;;;;-142.75;75.37;77164.81;5060726;28;19975;-78
2021/08/11 04:24:06;;;;;;;;;;;;;;;-142.75;75.37;77176.63;5058670;28;19923;-78
2021/08/11 04:26:32;;;;;;;;;;;;;;;-142.75;75.35;77145.13;5059391;28;19917;-79
2021/08/11 04:28:57;;;;;;;;;;;;;;;-142.75;75.27;77160.88;5059004;28;19917;-81
2021/08/11 04:31:22;;;;;;;;;;;;;;;-142.75;75.42;77158.91;5063071;28;19975;-78
2021/08/11 04:33:47;;;;;;;;;;;;;;;-142.75;75.42;77151.03;5063553;28;19916;-78
2021/08/11 04:36:12;;;;;;;;;;;;;;;-142.75;75.47;77149.06;5057127;28;20334;-78
2021/08/11 04:38:38;;;;;;;;;;;;;;;-142.75;75.53;77143.16;5073607;28;19931;-77
2021/08/11 04:41:03;;;;;;;;;;;;;;;-142.75;75.53;77153.00;5062875;28;19921;-78
2021/08/11 04:43:28;;;;;;;;;;;;;;;-142.75;75.48;77170.72;5059715;28;19917;-78
2021/08/11 04:45:53;;;;;;;;;;;;;;;-142.75;75.61;77158.91;5061276;28;19924;-79
2021/08/11 04:48:18;;;;;;;;;;;;;;;-142.75;75.54;77154.97;5062849;28;19982;-79
2021/08/11 04:50:43;;;;;;;;;;;;;;;-142.75;75.44;77145.13;5059086;28;20333;-79
2021/08/11 04:53:09;;;;;;;;;;;;;;;-142.75;75.34;77123.47;5063729;28;19917;-79
2021/08/11 04:55:35;;;;;;;;;;;;;;;-142.75;75.37;77115.59;5061534;28;19956;-78
2021/08/11 04:58:00;;;;;;;;;;;;;;;-142.75;75.49;77113.63;5061618;28;19928;-78
2021/08/11 05:00:25;;;;;;;;;;;;;;;-142.75;75.29;77117.56;5058693;28;19924;-79
2021/08/11 05:02:50;;;;;;;;;;;;;;;-142.75;75.34;77115.59;5062045;28;19920;-78
2021/08/11 05:05:16;;;;;;;;;;;;;;;-142.75;75.24;77099.84;5059135;28;20354;-78
2021/08/11 05:07:41;;;;;;;;;;;;;;;-142.75;75.26;77091.97;5063365;28;20401;-79
2021/08/11 05:10:06;;;;;;;;;;;;;;;-142.75;74.94;77086.06;5072740;22;19936;-78
2021/08/11 05:12:32;;;;;;;;;;;;;;;-142.75;74.68;77066.38;5063905;28;19921;-79
2021/08/11 05:14:58;;;;;;;;;;;;;;;-142.75;74.63;77070.31;5060627;28;19916;-78
2021/08/11 05:17:23;;;;;;;;;;;;;;;-142.75;74.44;77050.63;5064736;28;20019;-79
2021/08/11 05:19:49;;;;;;;;;;;;;;;-142.75;74.29;77048.66;5056779;28;20298;-80
2021/08/11 05:22:15;;;;;;;;;;;;;;;-142.75;74.10;77050.63;5042906;28;19968;-79
2021/08/11 05:24:40;;;;;;;;;;;;;;;-142.75;73.80;77027.00;5045050;28;19921;-80
2021/08/11 05:27:05;;;;;;;;;;;;;;;-142.75;73.68;77023.06;5035671;28;19916;-79
2021/08/11 05:29:31;;;;;;;;;;;;;;;-142.75;73.43;77001.41;5042019;28;19917;-77
2021/08/11 05:31:57;;;;;;;;;;;;;;;-142.75;72.99;76975.81;5042138;28;19964;-78
2021/08/11 05:34:22;;;;;;;;;;;;;;;-142.75;72.51;76962.03;5045357;28;19967;-80
2021/08/11 05:36:47;;;;;;;;;;;;;;;-142.75;71.57;76942.34;5043929;28;19924;-80
2021/08/11 05:39:13;;;;;;;;;;;;;;;-142.75;70.69;76936.44;5044166;28;19923;-77
2021/08/11 05:41:38;;;;;;;;;;;;;;;-142.75;69.82;76940.38;5037792;28;20016;-78
2021/08/11 05:44:04;;;;;;;;;;;;;;;-142.75;69.52;76948.25;5038727;28;19917;-77
2021/08/11 05:46:29;;;;;;;;;;;;;;;-142.75;69.24;76948.25;5049461;28;19917;-78
2021/08/11 05:48:55;;;;;;;;;;;;;;;-142.75;69.28;76946.28;5045653;28;19916;-78
2021/08/11 05:51:20;;;;;;;;;;;;;;;-142.75;69.25;76916.75;5041418;28;19923;-79
2021/08/11 05:53:45;;;;;;;;;;;;;;;-142.75;68.61;76897.06;5043708;28;19939;-77
2021/08/11 05:56:10;;;;;;;;;;;;;;;-142.75;68.09;76877.38;5037403;28;19925;-77
2021/08/11 05:58:36;;;;;;;;;;;;;;;-142.75;67.86;76849.81;5039369;28;20011;-78
2021/08/11 06:01:01;;;;;;;;;;;;;;;-142.75;67.06;76810.44;5042015;28;20401;-78
2021/08/11 06:03:26;;;;;;;;;;;;;;;-142.75;66.20;76786.84;5043126;28;19932;-78
2021/08/11 06:05:51;;;;;;;;;;;;;;;-142.75;64.51;76775.03;5046195;28;19924;-77
2021/08/11 06:08:16;;;;;;;;;;;;;;;-142.75;63.57;76749.44;5045820;28;19917;-77
2021/08/11 06:10:41;;;;;;;;;;;;;;;-142.75;63.79;76751.41;5039059;28;20011;-78
2021/08/11 06:13:07;;;;;;;;;;;;;;;-142.75;63.61;76694.31;5033447;28;19996;-77
2021/08/11 06:15:32;;;;;;;;;;;;;;;-142.75;62.25;76627.38;5043560;28;19923;-79
2021/08/11 06:17:57;;;;;;;;;;;;;;;-142.75;60.81;76593.91;5044248;28;19940;-77
2021/08/11 06:20:23;;;;;;;;;;;;;;;-142.75;59.01;76556.50;5040904;28;19917;-78
2021/08/11 06:22:48;;;;;;;;;;;;;;;-142.75;58.45;76554.53;5042844;28;19932;-76
2021/08/11 06:25:13;;;;;;;;;;;;;;;-142.75;57.74;76503.38;5039810;28;19923;-78
2021/08/11 06:27:39;;;;;;;;;;;;;;;-142.75;56.79;76491.56;5037194;28;19964;-77
2021/08/11 06:30:05;;;;;;;;;;;;;;;-142.75;57.07;76450.22;5038639;28;19947;-79
2021/08/11 06:32:31;;;;;;;;;;;;;;;-142.75;57.23;76454.16;5043849;28;20003;-78
2021/08/11 06:34:56;;;;;;;;;;;;;;;-142.75;56.63;76434.47;5036152;28;20416;-80
2021/08/11 06:37:21;;;;;;;;;;;;;;;-142.75;56.09;76412.81;5043285;28;19923;-79
2021/08/11 06:39:46;;;;;;;;;;;;;;;-142.75;55.61;76377.38;5035370;28;19924;-77
2021/08/11 06:42:12;;;;;;;;;;;;;;;-142.75;54.46;76338.03;5029513;28;19921;-77
2021/08/11 06:44:37;;;;;;;;;;;;;;;-142.75;53.77;76277.00;5033421;28;20394;-77
2021/08/11 06:47:02;;;;;;;;;;;;;;;-142.75;52.57;76247.47;5032091;28;19921;-78
2021/08/11 06:49:27;;;;;;;;;;;;;;;-142.75;51.66;76196.31;5042112;28;19921;-76
2021/08/11 06:51:53;;;;;;;;;;;;;;;-142.75;51.42;76156.94;5035830;28;19925;-76
2021/08/11 06:54:18;;;;;;;;;;;;;;;-142.75;50.55;76188.44;5045472;28;19920;-77
2021/08/11 06:56:43;;;;;;;;;;;;;;;-142.75;50.74;76141.19;5051156;28;19970;-77
2021/08/11 06:59:08;;;;;;;;;;;;;;;-142.75;50.46;76135.28;5037804;28;19917;-77
2021/08/11 07:01:33;;;;;;;;;;;;;;;-142.75;50.08;76127.41;5049188;28;19970;-78
2021/08/11 07:03:59;;;;;;;;;;;;;;;-142.75;49.69;76141.19;5047713;28;19917;-76
2021/08/11 07:06:24;;;;;;;;;;;;;;;-142.75;49.44;76121.50;5032224;28;20010;-78
2021/08/11 07:08:49;;;;;;;;;;;;;;;-142.75;49.83;76198.28;5030844;28;19921;-78
2021/08/11 07:11:14;;;;;;;;;;;;;;;-142.75;50.08;76117.56;5041013;28;19927;-77
2021/08/11 07:13:39;;;;;;;;;;;;;;;-142.75;49.56;76101.81;5032294;28;21676;-77
2021/08/11 07:16:05;;;;;;;;;;;;;;;-142.75;49.13;76107.72;5039287;28;20440;-77
2021/08/11 07:18:30;;;;;;;;;;;;;;;-142.75;49.83;76145.13;5043489;28;19917;-78
2021/08/11 07:20:55;;;;;;;;;;;;;;;-142.75;49.39;76076.22;5041132;28;20393;-77
2021/08/11 07:23:20;;;;;;;;;;;;;;;-142.75;47.84;76034.91;5037076;28;19960;-76
2021/08/11 07:25:45;;;;;;;;;;;;;;;-142.75;47.65;75975.84;5048885;28;19917;-77
2021/08/11 07:28:11;;;;;;;;;;;;;;;-142.75;46.52;75958.16;5045683;28;19970;-76
2021/08/11 07:30:37;;;;;;;;;;;;;;;-142.75;46.03;75906.97;5044705;28;19932;-77
2021/08/11 07:33:03;;;;;;;;;;;;;;;-142.75;45.52;75790.84;5038402;28;20441;-77
2021/08/11 07:35:29;;;;;;;;;;;;;;;-142.75;44.31;75781.00;5041094;28;19917;-77
2021/08/11 07:37:55;;;;;;;;;;;;;;;-142.75;44.04;75751.50;5041752;28;20090;-77
2021/08/11 07:40:22;;;;;;;;;;;;;;;-142.75;43.21;75716.06;5046574;28;19912;-77
2021/08/11 07:42:48;;;;;;;;;;;;;;;-142.75;42.71;75720.00;5034737;28;19963;-77
2021/08/11 07:45:14;;;;;;;;;;;;;;;-142.75;42.54;75716.06;5038353;28;19917;-76
2021/08/11 07:47:39;;;;;;;;;;;;;;;-142.75;42.54;75741.66;5032698;28;19925;-76
2021/08/11 07:50:05;;;;;;;;;;;;;;;-142.75;43.34;75816.44;5045514;28;19928;-76
2021/08/11 07:52:30;;;;;;;;;;;;;;;-142.75;43.46;75824.31;5048626;28;20373;-76
2021/08/11 07:54:56;;;;;;;;;;;;;;;-142.75;43.14;75834.16;5050120;28;19913;-76
2021/08/11 07:57:21;;;;;;;;;;;;;;;-142.75;42.99;75877.44;5043118;28;20278;-76
2021/08/11 07:59:46;;;;;;;;;;;;;;;-142.75;43.26;75834.16;5038308;28;19913;-75
2021/08/11 08:02:13;;;;;;;;;;;;;;;-142.75;44.00;75749.53;5046680;28;19925;-77
2021/08/11 08:04:40;;;;;;;;;;;;;;;-142.75;42.76;75664.91;5048874;28;19913;-76
2021/08/11 08:07:06;;;;;;;;;;;;;;;-142.75;40.63;75623.56;5041017;28;20357;-74
2021/08/11 08:09:31;;;;;;;;;;;;;;;-142.75;39.73;75688.50;5034457;28;19957;-76
2021/08/11 08:11:56;;;;;;;;;;;;;;;-142.75;40.16;75637.34;5030808;28;19920;-76
2021/08/11 08:14:21;;;;;;;;;;;;;;;-142.75;38.75;75590.13;5039504;28;19920;-76
2021/08/11 08:16:46;;;;;;;;;;;;;;;-142.75;39.67;75633.41;5046196;28;19966;-76
2021/08/11 08:19:12;;;;;;;;;;;;;;;-142.75;39.30;75749.53;5052868;28;19928;-76
2021/08/11 08:21:37;;;;;;;;;;;;;;;-142.75;39.29;75700.31;5053454;28;19928;-76
2021/08/11 08:24:02;;;;;;;;;;;;;;;-142.75;39.64;75586.19;5048287;28;20054;-76
2021/08/11 08:26:27;;;;;;;;;;;;;;;-142.75;38.07;75592.09;5035282;28;19971;-76
2021/08/11 08:28:53;;;;;;;;;;;;;;;-142.75;38.08;75605.84;5034335;28;20364;-76
2021/08/11 08:31:18;;;;;;;;;;;;;;;-142.75;39.61;75716.06;5038172;28;20294;-77
2021/08/11 08:33:43;;;;;;;;;;;;;;;-142.75;39.84;75718.03;5050079;28;20330;-77
2021/08/11 08:36:09;;;;;;;;;;;;;;;-142.75;38.97;75655.06;5053655;28;19948;-76
2021/08/11 08:38:34;;;;;;;;;;;;;;;-142.75;38.89;75611.75;5054233;28;19925;-77
2021/08/11 08:41:00;;;;;;;;;;;;;;;-142.75;39.91;75808.56;5051160;28;19928;-77
2021/08/11 08:43:26;;;;;;;;;;;;;;;-142.75;38.78;75670.81;5049487;28;20013;-76
2021/08/11 08:45:52;;;;;;;;;;;;;;;-142.75;40.03;75588.16;5054789;28;19963;-76
2021/08/11 08:48:17;;;;;;;;;;;;;;;-142.75;38.17;75487.78;5045659;28;19921;-77
2021/08/11 08:50:42;;;;;;;;;;;;;;;-142.75;37.46;75436.59;5049200;28;19925;-76
2021/08/11 08:53:08;;;;;;;;;;;;;;;-142.75;37.28;75312.63;5043764;28;19917;-77
2021/08/11 08:55:34;;;;;;;;;;;;;;;-142.75;36.44;75275.25;5049958;28;19917;-78
2021/08/11 08:58:00;;;;;;;;;;;;;;;-142.75;36.40;75269.34;5042091;28;19996;-76
2021/08/11 09:00:25;;;;;;;;;;;;;;;-142.75;34.30;75135.53;5054103;28;19917;-76
2021/08/11 09:02:51;;;;;;;;;;;;;;;-142.75;34.28;75180.78;5054347;28;19921;-76
2021/08/11 09:05:16;;;;;;;;;;;;;;;-142.75;34.17;75072.56;5054793;28;19929;-77
2021/08/11 09:07:45;;;;;;;;;;;;;;;-142.75;33.94;75153.25;5053801;28;19917;-76
2021/08/11 09:10:13;;;;;;;;;;;;;;;-142.75;34.82;75432.69;5041247;28;20371;-77
2021/08/11 09:12:42;;;;;;;;;;;;;;;-142.75;34.30;75125.69;5035012;28;19917;-77
2021/08/11 09:15:23;;;;;;;;;;;;;;;-142.75;32.66;75243.75;5034588;28;19917;-76
2021/08/11 09:17:49;;;;;;;;;;;;;;;-142.75;33.62;75039.13;5034008;28;20362;-76
2021/08/11 09:20:20;;;;;;;;;;;;;;;-142.75;32.38;74974.19;5042652;28;20169;-75
2021/08/11 09:22:49;;;;;;;;;;;;;;;-142.75;31.53;74974.19;5037220;28;19951;-76
2021/08/11 09:25:15;;;;;;;;;;;;;;;-142.75;32.45;75019.44;5048301;28;19940;-76
2021/08/11 09:27:41;;;;;;;;;;;;;;;-142.75;31.33;74984.00;5034393;28;20342;-76
2021/08/11 09:30:09;;;;;;;;;;;;;;;-142.75;32.33;74928.91;5040737;28;19992;-76
2021/08/11 09:32:50;;;;;;;;;;;;;;;-142.75;31.14;74846.28;5053062;28;20405;-75
2021/08/11 09:35:34;;;;;;;;;;;;;;;-142.75;30.40;74767.56;5042992;28;20348;-76
2021/08/11 09:38:07;;;;;;;;;;;;;;;-142.75;29.59;74803.00;5034687;28;19917;-75
2021/08/11 09:40:34;;;;;;;;;;;;;;;-142.75;31.44;75043.03;5038482;28;20004;-76
2021/08/11 09:43:04;;;;;;;;;;;;;;;-142.75;32.77;75168.97;5035863;28;19917;-76
2021/08/11 09:45:41;;;;;;;;;;;;;;;-142.75;32.94;75279.19;5050364;28;19923;-75
2021/08/11 09:48:06;;;;;;;;;;;;;;;-142.75;34.16;75352.00;5051728;28;19951;-76
2021/08/11 09:50:40;;;;;;;;;;;;;;;-142.75;32.98;75302.78;5053337;28;20371;-76
2021/08/11 09:53:05;;;;;;;;;;;;;;;-142.75;32.24;75168.97;5053378;28;19921;-76
2021/08/11 09:55:51;;;;;;;;;;;;;;;-142.75;32.36;75233.91;5053277;28;19924;-75
2021/08/11 09:58:19;;;;;;;;;;;;;;;-142.75;33.37;75206.38;5053114;28;20423;-75
2021/08/11 10:00:45;;;;;;;;;;;;;;;-142.75;31.63;75283.13;5046197;28;19917;-75
2021/08/11 10:03:10;;;;;;;;;;;;;;;-142.75;32.63;75106.00;5032674;28;19924;-75
2021/08/11 10:05:36;;;;;;;;;;;;;;;-142.75;31.75;74946.63;5032969;28;19920;-76
2021/08/11 10:08:02;;;;;;;;;;;;;;;-142.75;31.59;75023.38;5036433;28;19964;-75
2021/08/11 10:10:27;;;;;;;;;;;;;;;-142.75;30.02;74895.47;5035398;28;19949;-75
2021/08/11 10:12:53;;;;;;;;;;;;;;;-142.75;29.67;74924.97;5033505;28;19932;-76
2021/08/11 10:15:19;;;;;;;;;;;;;;;-142.75;29.35;74942.69;5032507;28;19917;-76
2021/08/11 10:17:44;;;;;;;;;;;;;;;-142.75;30.41;74980.06;5032424;28;20016;-76
2021/08/11 10:20:10;;;;;;;;;;;;;;;-142.75;30.35;75086.34;5037873;28;19968;-75
2021/08/11 10:22:37;;;;;;;;;;;;;;;-142.75;30.16;75167.00;5043012;28;19925;-76
2021/08/11 10:25:03;;;;;;;;;;;;;;;-142.75;30.94;75039.13;5032243;28;20636;-75
2021/08/11 10:27:28;;;;;;;;;;;;;;;-142.75;30.79;74964.34;5032459;28;19959;-75
2021/08/11 10:29:54;;;;;;;;;;;;;;;-142.75;30.11;75125.69;5036106;28;20000;-75
2021/08/11 10:32:20;;;;;;;;;;;;;;;-142.75;30.98;75257.53;5048077;28;19920;-75
2021/08/11 10:34:46;;;;;;;;;;;;;;;-142.75;31.95;75391.34;5050590;28;19925;-75
2021/08/11 10:37:13;;;;;;;;;;;;;;;-142.75;31.74;75078.47;5051645;28;19917;-75
2021/08/11 10:39:39;;;;;;;;;;;;;;;-142.75;30.32;75090.28;5050451;28;20004;-76
2021/08/11 10:42:09;;;;;;;;;;;;;;;-142.75;29.84;75003.69;5051463;28;19921;-76
2021/08/11 10:44:34;;;;;;;;;;;;;;;-142.75;30.30;74905.31;5047064;28;19917;-76
2021/08/11 10:47:01;;;;;;;;;;;;;;;-142.75;29.61;74844.31;5041929;28;19924;-75
2021/08/11 10:49:29;;;;;;;;;;;;;;;-142.75;29.80;74787.25;5047019;28;19924;-76
2021/08/11 10:52:13;;;;;;;;;;;;;;;-142.75;29.37;74716.41;5043571;28;20005;-75
2021/08/11 10:54:52;;;;;;;;;;;;;;;-142.75;29.04;74905.31;5036070;28;19917;-76
2021/08/11 10:57:36;;;;;;;;;;;;;;;-142.75;30.16;74987.94;5037469;28;20008;-76
2021/08/11 11:00:21;;;;;;;;;;;;;;;-142.75;30.01;74903.34;5044786;28;19955;-76
2021/08/11 11:02:48;;;;;;;;;;;;;;;-142.75;30.02;74913.19;5031970;28;19944;-76
2021/08/11 11:05:13;;;;;;;;;;;;;;;-142.75;29.84;74938.75;5048497;28;20378;-76
2021/08/11 11:07:38;;;;;;;;;;;;;;;-142.75;30.65;74897.44;5034786;28;19970;-76
2021/08/11 11:10:23;;;;;;;;;;;;;;;-142.75;29.43;74814.78;5069710;22;20787;-78
2021/08/11 11:12:48;;;;;;;;;;;;;;;-142.75;29.72;74763.63;5087699;28;19927;-76
2021/08/11 11:15:13;;;;;;;;;;;;;;;-142.75;29.38;74775.44;5081034;28;19916;-76
2021/08/11 11:17:57;;;;;;;;;;;;;;;-142.75;30.64;75056.81;5088549;28;19916;-76
2021/08/11 11:20:22;;;;;;;;;;;;;;;-142.75;30.24;75046.97;5067884;28;19916;-79
2021/08/11 11:22:54;;;;;;;;;;;;;;;-142.75;30.33;74928.91;5058035;28;19921;-76
2021/08/11 11:25:40;;;;;;;;;;;;;;;-142.75;30.37;75133.56;5057042;28;19942;-77
2021/08/11 11:28:05;;;;;;;;;;;;;;;-142.75;31.17;75098.16;5070874;28;19965;-76
2021/08/11 11:30:31;;;;;;;;;;;;;;;-142.75;31.59;75145.38;5069147;28;19979;-75
2021/08/11 11:33:16;;;;;;;;;;;;;;;-142.75;31.63;75050.91;5068356;28;19916;-75
2021/08/11 11:35:43;;;;;;;;;;;;;;;-142.75;30.95;74907.28;5062348;28;19940;-77
2021/08/11 11:38:10;;;;;;;;;;;;;;;-142.75;30.09;74928.91;5064496;28;19963;-76
2021/08/11 11:40:53;;;;;;;;;;;;;;;-142.75;30.96;74936.78;5056420;28;20310;-75
2021/08/11 11:43:22;;;;;;;;;;;;;;;-142.75;30.72;74901.38;5065291;28;19959;-77
2021/08/11 11:45:47;;;;;;;;;;;;;;;-142.75;30.16;74917.13;5059839;28;19924;-77
2021/08/11 11:48:13;;;;;;;;;;;;;;;-142.75;32.48;75334.28;5058803;28;19921;-76
2021/08/11 11:50:43;;;;;;;;;;;;;;;-142.75;33.03;75204.41;5058868;28;20317;-77
2021/08/11 11:53:10;;;;;;;;;;;;;;;-142.75;32.46;75168.97;5059906;28;20010;-76
2021/08/11 11:55:35;;;;;;;;;;;;;;;-142.75;33.05;75298.84;5059016;28;19916;-75
2021/08/11 11:58:05;;;;;;;;;;;;;;;-142.75;33.40;75324.44;5060568;28;19935;-75
2021/08/11 12:00:30;;;;;;;;;;;;;;;-142.75;33.42;75294.94;5066764;28;19976;-76
2021/08/11 12:02:55;;;;;;;;;;;;;;;-142.75;34.91;75348.06;5067808;28;20003;-76
2021/08/11 12:05:21;;;;;;;;;;;;;;;-142.75;36.59;75605.84;5052757;28;20295;-76
2021/08/11 12:07:47;;;;;;;;;;;;;;;-142.75;36.74;75617.66;5060588;28;20279;-76
2021/08/11 12:10:28;;;;;;;;;;;;;;;-142.75;37.04;75523.19;5060784;28;19916;-78
2021/08/11 12:13:01;;;;;;;;;;;;;;;-142.75;35.80;75464.16;5055948;28;20007;-75
2021/08/11 12:15:28;;;;;;;;;;;;;;;-142.75;35.29;75444.47;5060288;28;19920;-77
2021/08/11 12:17:56;;;;;;;;;;;;;;;-142.75;35.59;75466.13;5065133;28;19920;-77
2021/08/11 12:20:32;;;;;;;;;;;;;;;-142.75;36.75;75523.19;5056188;28;19916;-76
2021/08/11 12:22:58;;;;;;;;;;;;;;;-142.75;37.36;75550.75;5063010;28;19920;-77
2021/08/11 12:25:25;;;;;;;;;;;;;;;-142.75;36.48;75479.91;5064487;28;19920;-76
2021/08/11 12:28:09;;;;;;;;;;;;;;;-142.75;37.66;75521.22;5058566;28;19971;-77